sensor_id;sensor_type;location;lat;lon;timestamp;P1;durP1;ratioP1;P2;durP2;ratioP2
82950;SDS011;72737;53.332;6.514;2023-11-19T00:00:31;4.00;;;1.48;;
82950;SDS011;72737;53.332;6.514;2023-11-19T00:02:56;5.70;;;1.75;;
82950;SDS011;72737;53.332;6.514;2023-11-19T00:05:22;4.93;;;1.55;;
82950;SDS011;72737;53.332;6.514;2023-11-19T00:07:48;5.47;;;1.67;;
82950;SDS011;72737;53.332;6.514;2023-11-19T00:10:14;5.80;;;1.65;;
82950;SDS011;72737;53.332;6.514;2023-11-19T00:12:43;5.22;;;1.50;;
82950;SDS011;72737;53.332;6.514;2023-11-19T00:15:10;5.03;;;1.50;;
82950;SDS011;72737;53.332;6.514;2023-11-19T00:17:42;4.32;;;1.38;;
82950;SDS011;72737;53.332;6.514;2023-11-19T00:20:18;4.32;;;1.50;;
82950;SDS011;72737;53.332;6.514;2023-11-19T00:22:44;5.15;;;1.70;;
82950;SDS011;72737;53.332;6.514;2023-11-19T00:25:13;4.55;;;1.50;;
82950;SDS011;72737;53.332;6.514;2023-11-19T00:27:38;4.88;;;1.77;;
82950;SDS011;72737;53.332;6.514;2023-11-19T00:30:04;4.85;;;1.73;;
82950;SDS011;72737;53.332;6.514;2023-11-19T00:32:34;5.05;;;1.60;;
82950;SDS011;72737;53.332;6.514;2023-11-19T00:35:00;5.22;;;1.45;;
82950;SDS011;72737;53.332;6.514;2023-11-19T00:37:25;5.18;;;1.50;;
82950;SDS011;72737;53.332;6.514;2023-11-19T00:39:51;6.25;;;1.40;;
82950;SDS011;72737;53.332;6.514;2023-11-19T00:42:17;6.13;;;1.60;;
82950;SDS011;72737;53.332;6.514;2023-11-19T00:44:42;5.68;;;1.67;;
82950;SDS011;72737;53.332;6.514;2023-11-19T00:47:08;5.97;;;1.40;;
82950;SDS011;72737;53.332;6.514;2023-11-19T00:49:33;4.53;;;1.42;;
82950;SDS011;72737;53.332;6.514;2023-11-19T00:51:59;4.05;;;1.23;;
82950;SDS011;72737;53.332;6.514;2023-11-19T00:54:25;7.72;;;1.67;;
82950;SDS011;72737;53.332;6.514;2023-11-19T00:56:51;5.28;;;1.45;;
82950;SDS011;72737;53.332;6.514;2023-11-19T00:59:17;6.13;;;1.80;;
82950;SDS011;72737;53.332;6.514;2023-11-19T01:01:43;6.25;;;1.85;;
82950;SDS011;72737;53.332;6.514;2023-11-19T01:04:08;5.70;;;1.60;;
82950;SDS011;72737;53.332;6.514;2023-11-19T01:06:34;6.53;;;1.63;;
82950;SDS011;72737;53.332;6.514;2023-11-19T01:09:00;5.40;;;1.48;;
82950;SDS011;72737;53.332;6.514;2023-11-19T01:11:25;5.50;;;1.48;;
82950;SDS011;72737;53.332;6.514;2023-11-19T01:13:51;4.43;;;1.35;;
82950;SDS011;72737;53.332;6.514;2023-11-19T01:16:17;5.93;;;1.58;;
82950;SDS011;72737;53.332;6.514;2023-11-19T01:18:44;6.30;;;1.45;;
82950;SDS011;72737;53.332;6.514;2023-11-19T01:21:11;5.22;;;1.30;;
82950;SDS011;72737;53.332;6.514;2023-11-19T01:23:37;6.07;;;1.40;;
82950;SDS011;72737;53.332;6.514;2023-11-19T01:26:02;6.07;;;1.55;;
82950;SDS011;72737;53.332;6.514;2023-11-19T01:28:28;6.78;;;1.42;;
82950;SDS011;72737;53.332;6.514;2023-11-19T01:30:53;9.48;;;1.52;;
82950;SDS011;72737;53.332;6.514;2023-11-19T01:33:19;5.32;;;1.52;;
82950;SDS011;72737;53.332;6.514;2023-11-19T01:35:44;5.63;;;1.50;;
82950;SDS011;72737;53.332;6.514;2023-11-19T01:38:10;8.75;;;1.80;;
82950;SDS011;72737;53.332;6.514;2023-11-19T01:40:35;8.50;;;1.63;;
82950;SDS011;72737;53.332;6.514;2023-11-19T01:43:01;6.38;;;1.50;;
82950;SDS011;72737;53.332;6.514;2023-11-19T01:45:28;6.40;;;1.63;;
82950;SDS011;72737;53.332;6.514;2023-11-19T01:47:58;5.93;;;1.80;;
82950;SDS011;72737;53.332;6.514;2023-11-19T01:50:25;5.68;;;1.42;;
82950;SDS011;72737;53.332;6.514;2023-11-19T01:52:54;7.90;;;1.70;;
82950;SDS011;72737;53.332;6.514;2023-11-19T01:55:22;3.95;;;1.30;;
82950;SDS011;72737;53.332;6.514;2023-11-19T01:57:49;5.18;;;1.33;;
82950;SDS011;72737;53.332;6.514;2023-11-19T02:00:16;5.45;;;1.70;;
82950;SDS011;72737;53.332;6.514;2023-11-19T02:02:44;4.65;;;1.30;;
82950;SDS011;72737;53.332;6.514;2023-11-19T02:05:12;6.03;;;1.50;;
82950;SDS011;72737;53.332;6.514;2023-11-19T02:07:39;5.97;;;1.50;;
82950;SDS011;72737;53.332;6.514;2023-11-19T02:10:05;7.72;;;1.60;;
82950;SDS011;72737;53.332;6.514;2023-11-19T02:12:31;6.25;;;1.63;;
82950;SDS011;72737;53.332;6.514;2023-11-19T02:15:01;5.63;;;1.55;;
82950;SDS011;72737;53.332;6.514;2023-11-19T02:17:28;6.68;;;1.85;;
82950;SDS011;72737;53.332;6.514;2023-11-19T02:19:56;7.05;;;1.67;;
82950;SDS011;72737;53.332;6.514;2023-11-19T02:22:23;7.13;;;1.67;;
82950;SDS011;72737;53.332;6.514;2023-11-19T02:24:49;7.07;;;1.80;;
82950;SDS011;72737;53.332;6.514;2023-11-19T02:30:20;7.20;;;1.75;;
82950;SDS011;72737;53.332;6.514;2023-11-19T02:32:46;8.20;;;2.25;;
82950;SDS011;72737;53.332;6.514;2023-11-19T02:35:13;8.45;;;1.85;;
82950;SDS011;72737;53.332;6.514;2023-11-19T02:37:38;3.78;;;1.20;;
82950;SDS011;72737;53.332;6.514;2023-11-19T02:40:04;8.50;;;1.70;;
82950;SDS011;72737;53.332;6.514;2023-11-19T02:42:31;6.97;;;1.80;;
82950;SDS011;72737;53.332;6.514;2023-11-19T02:44:57;5.88;;;1.58;;
82950;SDS011;72737;53.332;6.514;2023-11-19T02:47:22;7.05;;;1.60;;
82950;SDS011;72737;53.332;6.514;2023-11-19T02:49:49;6.75;;;1.52;;
82950;SDS011;72737;53.332;6.514;2023-11-19T02:52:14;7.97;;;1.90;;
82950;SDS011;72737;53.332;6.514;2023-11-19T02:54:40;9.40;;;2.03;;
82950;SDS011;72737;53.332;6.514;2023-11-19T02:57:07;10.30;;;1.80;;
82950;SDS011;72737;53.332;6.514;2023-11-19T02:59:37;8.05;;;1.65;;
82950;SDS011;72737;53.332;6.514;2023-11-19T03:02:07;9.20;;;1.70;;
82950;SDS011;72737;53.332;6.514;2023-11-19T03:04:36;9.20;;;1.92;;
82950;SDS011;72737;53.332;6.514;2023-11-19T03:07:07;10.02;;;1.90;;
82950;SDS011;72737;53.332;6.514;2023-11-19T03:09:33;7.78;;;1.85;;
82950;SDS011;72737;53.332;6.514;2023-11-19T03:12:00;7.90;;;1.70;;
82950;SDS011;72737;53.332;6.514;2023-11-19T03:14:26;8.90;;;2.20;;
82950;SDS011;72737;53.332;6.514;2023-11-19T03:16:51;6.05;;;1.60;;
82950;SDS011;72737;53.332;6.514;2023-11-19T03:19:17;6.55;;;1.50;;
82950;SDS011;72737;53.332;6.514;2023-11-19T03:21:42;7.45;;;1.90;;
82950;SDS011;72737;53.332;6.514;2023-11-19T03:24:08;7.07;;;1.88;;
82950;SDS011;72737;53.332;6.514;2023-11-19T03:26:33;10.05;;;2.10;;
82950;SDS011;72737;53.332;6.514;2023-11-19T03:28:59;9.20;;;1.98;;
82950;SDS011;72737;53.332;6.514;2023-11-19T03:31:24;9.20;;;2.20;;
82950;SDS011;72737;53.332;6.514;2023-11-19T03:33:50;7.97;;;2.03;;
82950;SDS011;72737;53.332;6.514;2023-11-19T03:36:16;7.40;;;1.67;;
82950;SDS011;72737;53.332;6.514;2023-11-19T03:38:41;7.25;;;1.80;;
82950;SDS011;72737;53.332;6.514;2023-11-19T03:41:11;7.85;;;1.95;;
82950;SDS011;72737;53.332;6.514;2023-11-19T03:43:37;12.35;;;2.22;;
82950;SDS011;72737;53.332;6.514;2023-11-19T03:46:03;9.75;;;2.00;;
82950;SDS011;72737;53.332;6.514;2023-11-19T03:48:30;8.77;;;1.73;;
82950;SDS011;72737;53.332;6.514;2023-11-19T03:50:56;10.13;;;2.00;;
82950;SDS011;72737;53.332;6.514;2023-11-19T03:53:21;7.38;;;1.67;;
82950;SDS011;72737;53.332;6.514;2023-11-19T03:55:47;6.90;;;1.65;;
82950;SDS011;72737;53.332;6.514;2023-11-19T03:58:12;9.27;;;1.77;;
82950;SDS011;72737;53.332;6.514;2023-11-19T04:00:37;8.48;;;2.00;;
82950;SDS011;72737;53.332;6.514;2023-11-19T04:03:03;6.78;;;1.67;;
82950;SDS011;72737;53.332;6.514;2023-11-19T04:05:28;8.57;;;2.15;;
82950;SDS011;72737;53.332;6.514;2023-11-19T04:07:55;6.18;;;1.80;;
82950;SDS011;72737;53.332;6.514;2023-11-19T04:10:20;9.30;;;2.30;;
82950;SDS011;72737;53.332;6.514;2023-11-19T04:12:47;8.70;;;2.05;;
82950;SDS011;72737;53.332;6.514;2023-11-19T04:15:13;9.45;;;1.77;;
82950;SDS011;72737;53.332;6.514;2023-11-19T04:17:39;7.68;;;1.85;;
82950;SDS011;72737;53.332;6.514;2023-11-19T04:20:05;8.65;;;2.05;;
82950;SDS011;72737;53.332;6.514;2023-11-19T04:22:31;10.02;;;2.33;;
82950;SDS011;72737;53.332;6.514;2023-11-19T04:24:56;9.27;;;1.88;;
82950;SDS011;72737;53.332;6.514;2023-11-19T04:27:22;9.68;;;2.00;;
82950;SDS011;72737;53.332;6.514;2023-11-19T04:29:47;9.95;;;2.08;;
82950;SDS011;72737;53.332;6.514;2023-11-19T04:32:12;9.27;;;2.10;;
82950;SDS011;72737;53.332;6.514;2023-11-19T04:34:38;8.85;;;2.08;;
82950;SDS011;72737;53.332;6.514;2023-11-19T04:37:03;7.13;;;1.73;;
82950;SDS011;72737;53.332;6.514;2023-11-19T04:39:29;9.63;;;2.30;;
82950;SDS011;72737;53.332;6.514;2023-11-19T04:41:55;8.98;;;1.75;;
82950;SDS011;72737;53.332;6.514;2023-11-19T04:44:21;10.45;;;2.60;;
82950;SDS011;72737;53.332;6.514;2023-11-19T04:46:47;10.63;;;2.15;;
82950;SDS011;72737;53.332;6.514;2023-11-19T04:49:12;10.55;;;2.45;;
82950;SDS011;72737;53.332;6.514;2023-11-19T04:51:40;10.90;;;2.10;;
82950;SDS011;72737;53.332;6.514;2023-11-19T04:54:07;12.20;;;2.25;;
82950;SDS011;72737;53.332;6.514;2023-11-19T04:56:33;9.20;;;2.20;;
82950;SDS011;72737;53.332;6.514;2023-11-19T04:58:59;11.07;;;2.45;;
82950;SDS011;72737;53.332;6.514;2023-11-19T05:01:24;13.57;;;2.17;;
82950;SDS011;72737;53.332;6.514;2023-11-19T05:03:50;10.77;;;2.20;;
82950;SDS011;72737;53.332;6.514;2023-11-19T05:06:16;10.65;;;2.47;;
82950;SDS011;72737;53.332;6.514;2023-11-19T05:08:41;11.00;;;1.90;;
82950;SDS011;72737;53.332;6.514;2023-11-19T05:11:07;9.70;;;1.98;;
82950;SDS011;72737;53.332;6.514;2023-11-19T05:13:32;12.38;;;2.47;;
82950;SDS011;72737;53.332;6.514;2023-11-19T05:15:58;12.43;;;2.75;;
82950;SDS011;72737;53.332;6.514;2023-11-19T05:18:23;13.02;;;2.40;;
82950;SDS011;72737;53.332;6.514;2023-11-19T05:20:49;13.45;;;2.28;;
82950;SDS011;72737;53.332;6.514;2023-11-19T05:23:14;12.45;;;2.75;;
82950;SDS011;72737;53.332;6.514;2023-11-19T05:25:39;12.95;;;2.95;;
82950;SDS011;72737;53.332;6.514;2023-11-19T05:28:05;12.15;;;2.58;;
82950;SDS011;72737;53.332;6.514;2023-11-19T05:30:30;15.23;;;2.50;;
82950;SDS011;72737;53.332;6.514;2023-11-19T05:32:56;13.57;;;2.67;;
82950;SDS011;72737;53.332;6.514;2023-11-19T05:35:21;9.70;;;2.07;;
82950;SDS011;72737;53.332;6.514;2023-11-19T05:37:46;11.43;;;2.60;;
82950;SDS011;72737;53.332;6.514;2023-11-19T05:40:12;10.95;;;2.72;;
82950;SDS011;72737;53.332;6.514;2023-11-19T05:42:40;15.48;;;2.85;;
82950;SDS011;72737;53.332;6.514;2023-11-19T05:45:06;11.13;;;2.30;;
82950;SDS011;72737;53.332;6.514;2023-11-19T05:47:33;12.23;;;2.28;;
82950;SDS011;72737;53.332;6.514;2023-11-19T05:49:58;13.63;;;2.55;;
82950;SDS011;72737;53.332;6.514;2023-11-19T05:52:24;12.00;;;2.30;;
82950;SDS011;72737;53.332;6.514;2023-11-19T05:54:49;15.75;;;3.15;;
82950;SDS011;72737;53.332;6.514;2023-11-19T05:57:17;12.95;;;3.00;;
82950;SDS011;72737;53.332;6.514;2023-11-19T05:59:49;11.07;;;2.60;;
82950;SDS011;72737;53.332;6.514;2023-11-19T06:02:14;17.35;;;2.78;;
82950;SDS011;72737;53.332;6.514;2023-11-19T06:04:40;10.60;;;2.58;;
82950;SDS011;72737;53.332;6.514;2023-11-19T06:07:09;12.90;;;2.22;;
82950;SDS011;72737;53.332;6.514;2023-11-19T06:09:34;13.30;;;2.60;;
82950;SDS011;72737;53.332;6.514;2023-11-19T06:12:00;12.70;;;2.72;;
82950;SDS011;72737;53.332;6.514;2023-11-19T06:14:27;13.13;;;2.47;;
82950;SDS011;72737;53.332;6.514;2023-11-19T06:16:52;15.68;;;3.00;;
82950;SDS011;72737;53.332;6.514;2023-11-19T06:19:18;12.38;;;2.92;;
82950;SDS011;72737;53.332;6.514;2023-11-19T06:21:43;16.10;;;3.13;;
82950;SDS011;72737;53.332;6.514;2023-11-19T06:24:09;14.57;;;3.28;;
82950;SDS011;72737;53.332;6.514;2023-11-19T06:26:34;14.70;;;3.13;;
82950;SDS011;72737;53.332;6.514;2023-11-19T06:29:00;13.32;;;3.05;;
82950;SDS011;72737;53.332;6.514;2023-11-19T06:31:25;13.05;;;3.03;;
82950;SDS011;72737;53.332;6.514;2023-11-19T06:33:51;16.77;;;3.65;;
82950;SDS011;72737;53.332;6.514;2023-11-19T06:36:16;16.05;;;2.95;;
82950;SDS011;72737;53.332;6.514;2023-11-19T06:38:42;15.75;;;3.00;;
82950;SDS011;72737;53.332;6.514;2023-11-19T06:41:08;14.02;;;3.20;;
82950;SDS011;72737;53.332;6.514;2023-11-19T06:43:37;14.13;;;3.40;;
82950;SDS011;72737;53.332;6.514;2023-11-19T06:46:02;16.65;;;3.30;;
82950;SDS011;72737;53.332;6.514;2023-11-19T06:48:30;17.58;;;4.20;;
82950;SDS011;72737;53.332;6.514;2023-11-19T06:50:59;15.88;;;3.42;;
82950;SDS011;72737;53.332;6.514;2023-11-19T06:53:25;15.68;;;3.40;;
82950;SDS011;72737;53.332;6.514;2023-11-19T06:55:52;14.93;;;3.10;;
82950;SDS011;72737;53.332;6.514;2023-11-19T06:58:18;15.82;;;3.20;;
82950;SDS011;72737;53.332;6.514;2023-11-19T07:00:44;13.68;;;2.85;;
82950;SDS011;72737;53.332;6.514;2023-11-19T07:03:11;16.08;;;3.22;;
82950;SDS011;72737;53.332;6.514;2023-11-19T07:05:36;14.55;;;3.13;;
82950;SDS011;72737;53.332;6.514;2023-11-19T07:08:05;15.48;;;3.13;;
82950;SDS011;72737;53.332;6.514;2023-11-19T07:10:32;19.13;;;3.90;;
82950;SDS011;72737;53.332;6.514;2023-11-19T07:12:58;14.85;;;3.20;;
82950;SDS011;72737;53.332;6.514;2023-11-19T07:15:24;16.20;;;2.83;;
82950;SDS011;72737;53.332;6.514;2023-11-19T07:17:49;15.35;;;3.47;;
82950;SDS011;72737;53.332;6.514;2023-11-19T07:20:15;14.50;;;3.28;;
82950;SDS011;72737;53.332;6.514;2023-11-19T07:22:43;15.68;;;3.42;;
82950;SDS011;72737;53.332;6.514;2023-11-19T07:25:12;14.70;;;2.88;;
82950;SDS011;72737;53.332;6.514;2023-11-19T07:27:38;12.02;;;2.90;;
82950;SDS011;72737;53.332;6.514;2023-11-19T07:30:04;19.73;;;3.53;;
82950;SDS011;72737;53.332;6.514;2023-11-19T07:32:32;15.48;;;3.08;;
82950;SDS011;72737;53.332;6.514;2023-11-19T07:34:58;19.55;;;3.90;;
82950;SDS011;72737;53.332;6.514;2023-11-19T07:37:23;16.25;;;3.55;;
82950;SDS011;72737;53.332;6.514;2023-11-19T07:39:49;15.07;;;3.05;;
82950;SDS011;72737;53.332;6.514;2023-11-19T07:42:14;13.93;;;2.95;;
82950;SDS011;72737;53.332;6.514;2023-11-19T07:44:40;15.82;;;3.33;;
82950;SDS011;72737;53.332;6.514;2023-11-19T07:47:06;17.75;;;3.30;;
82950;SDS011;72737;53.332;6.514;2023-11-19T07:49:32;16.45;;;3.53;;
82950;SDS011;72737;53.332;6.514;2023-11-19T07:51:58;18.60;;;3.13;;
82950;SDS011;72737;53.332;6.514;2023-11-19T07:54:23;16.17;;;3.40;;
82950;SDS011;72737;53.332;6.514;2023-11-19T07:56:49;13.77;;;3.17;;
82950;SDS011;72737;53.332;6.514;2023-11-19T07:59:15;19.10;;;4.05;;
82950;SDS011;72737;53.332;6.514;2023-11-19T08:01:40;18.25;;;3.75;;
82950;SDS011;72737;53.332;6.514;2023-11-19T08:04:07;20.90;;;3.90;;
82950;SDS011;72737;53.332;6.514;2023-11-19T08:06:32;17.40;;;3.60;;
82950;SDS011;72737;53.332;6.514;2023-11-19T08:08:58;16.20;;;3.15;;
82950;SDS011;72737;53.332;6.514;2023-11-19T08:11:24;21.65;;;3.97;;
82950;SDS011;72737;53.332;6.514;2023-11-19T08:13:50;21.67;;;3.55;;
82950;SDS011;72737;53.332;6.514;2023-11-19T08:16:15;16.17;;;3.78;;
82950;SDS011;72737;53.332;6.514;2023-11-19T08:18:41;20.10;;;3.63;;
82950;SDS011;72737;53.332;6.514;2023-11-19T08:21:08;15.20;;;3.30;;
82950;SDS011;72737;53.332;6.514;2023-11-19T08:23:34;19.88;;;4.35;;
82950;SDS011;72737;53.332;6.514;2023-11-19T08:26:00;21.70;;;3.75;;
82950;SDS011;72737;53.332;6.514;2023-11-19T08:28:26;17.05;;;3.92;;
82950;SDS011;72737;53.332;6.514;2023-11-19T08:30:51;16.58;;;3.30;;
82950;SDS011;72737;53.332;6.514;2023-11-19T08:33:17;17.30;;;3.65;;
82950;SDS011;72737;53.332;6.514;2023-11-19T08:35:42;18.33;;;3.50;;
82950;SDS011;72737;53.332;6.514;2023-11-19T08:38:07;15.65;;;3.50;;
82950;SDS011;72737;53.332;6.514;2023-11-19T08:40:33;20.60;;;3.92;;
82950;SDS011;72737;53.332;6.514;2023-11-19T08:42:58;18.25;;;3.15;;
82950;SDS011;72737;53.332;6.514;2023-11-19T08:45:24;16.52;;;2.88;;
82950;SDS011;72737;53.332;6.514;2023-11-19T08:47:50;17.25;;;3.22;;
82950;SDS011;72737;53.332;6.514;2023-11-19T08:50:15;17.27;;;3.50;;
82950;SDS011;72737;53.332;6.514;2023-11-19T08:52:41;14.48;;;3.50;;
82950;SDS011;72737;53.332;6.514;2023-11-19T08:55:06;19.85;;;3.70;;
82950;SDS011;72737;53.332;6.514;2023-11-19T08:57:32;17.35;;;3.40;;
82950;SDS011;72737;53.332;6.514;2023-11-19T08:59:58;14.65;;;3.17;;
82950;SDS011;72737;53.332;6.514;2023-11-19T09:02:23;17.65;;;3.22;;
82950;SDS011;72737;53.332;6.514;2023-11-19T09:04:49;12.75;;;3.10;;
82950;SDS011;72737;53.332;6.514;2023-11-19T09:07:14;17.30;;;3.35;;
82950;SDS011;72737;53.332;6.514;2023-11-19T09:09:40;19.65;;;3.63;;
82950;SDS011;72737;53.332;6.514;2023-11-19T09:12:05;15.40;;;3.47;;
82950;SDS011;72737;53.332;6.514;2023-11-19T09:14:31;18.55;;;3.28;;
82950;SDS011;72737;53.332;6.514;2023-11-19T09:16:56;17.50;;;3.17;;
82950;SDS011;72737;53.332;6.514;2023-11-19T09:19:23;19.90;;;3.88;;
82950;SDS011;72737;53.332;6.514;2023-11-19T09:21:48;17.65;;;3.60;;
82950;SDS011;72737;53.332;6.514;2023-11-19T09:24:14;19.17;;;3.63;;
82950;SDS011;72737;53.332;6.514;2023-11-19T09:26:40;16.00;;;3.25;;
82950;SDS011;72737;53.332;6.514;2023-11-19T09:29:07;19.35;;;3.60;;
82950;SDS011;72737;53.332;6.514;2023-11-19T09:31:33;16.67;;;3.47;;
82950;SDS011;72737;53.332;6.514;2023-11-19T09:33:59;19.85;;;3.88;;
82950;SDS011;72737;53.332;6.514;2023-11-19T09:36:25;22.75;;;4.28;;
82950;SDS011;72737;53.332;6.514;2023-11-19T09:38:50;19.85;;;3.92;;
82950;SDS011;72737;53.332;6.514;2023-11-19T09:41:16;21.52;;;3.65;;
82950;SDS011;72737;53.332;6.514;2023-11-19T09:43:42;20.60;;;4.30;;
82950;SDS011;72737;53.332;6.514;2023-11-19T09:46:11;23.83;;;4.57;;
82950;SDS011;72737;53.332;6.514;2023-11-19T09:48:39;23.77;;;5.13;;
82950;SDS011;72737;53.332;6.514;2023-11-19T09:51:10;25.40;;;4.90;;
82950;SDS011;72737;53.332;6.514;2023-11-19T09:53:36;22.83;;;4.65;;
82950;SDS011;72737;53.332;6.514;2023-11-19T09:56:03;24.45;;;4.95;;
82950;SDS011;72737;53.332;6.514;2023-11-19T10:00:58;22.13;;;4.65;;
82950;SDS011;72737;53.332;6.514;2023-11-19T10:03:26;21.55;;;5.03;;
82950;SDS011;72737;53.332;6.514;2023-11-19T10:05:57;24.05;;;4.95;;
82950;SDS011;72737;53.332;6.514;2023-11-19T10:08:23;27.17;;;5.38;;
82950;SDS011;72737;53.332;6.514;2023-11-19T10:10:48;24.70;;;5.45;;
82950;SDS011;72737;53.332;6.514;2023-11-19T10:13:14;23.88;;;5.47;;
82950;SDS011;72737;53.332;6.514;2023-11-19T10:15:40;24.45;;;4.90;;
82950;SDS011;72737;53.332;6.514;2023-11-19T10:18:05;25.08;;;4.70;;
82950;SDS011;72737;53.332;6.514;2023-11-19T10:20:37;24.85;;;5.25;;
82950;SDS011;72737;53.332;6.514;2023-11-19T10:23:03;26.20;;;5.32;;
82950;SDS011;72737;53.332;6.514;2023-11-19T10:25:29;25.35;;;4.93;;
82950;SDS011;72737;53.332;6.514;2023-11-19T10:27:55;31.00;;;5.28;;
82950;SDS011;72737;53.332;6.514;2023-11-19T10:30:25;27.30;;;4.30;;
82950;SDS011;72737;53.332;6.514;2023-11-19T10:37:55;31.30;;;4.73;;
82950;SDS011;72737;53.332;6.514;2023-11-19T10:40:23;34.67;;;5.50;;
82950;SDS011;72737;53.332;6.514;2023-11-19T10:43:02;29.50;;;4.75;;
82950;SDS011;72737;53.332;6.514;2023-11-19T10:45:28;29.38;;;4.95;;
82950;SDS011;72737;53.332;6.514;2023-11-19T10:47:54;25.73;;;4.85;;
82950;SDS011;72737;53.332;6.514;2023-11-19T10:50:20;27.20;;;4.70;;
82950;SDS011;72737;53.332;6.514;2023-11-19T10:52:45;29.55;;;4.88;;
82950;SDS011;72737;53.332;6.514;2023-11-19T10:55:13;33.67;;;5.68;;
82950;SDS011;72737;53.332;6.514;2023-11-19T10:57:43;25.13;;;4.25;;
82950;SDS011;72737;53.332;6.514;2023-11-19T11:00:14;35.75;;;5.22;;
82950;SDS011;72737;53.332;6.514;2023-11-19T11:02:45;30.95;;;5.45;;
82950;SDS011;72737;53.332;6.514;2023-11-19T11:05:15;28.17;;;4.72;;
82950;SDS011;72737;53.332;6.514;2023-11-19T11:07:43;29.75;;;5.70;;
82950;SDS011;72737;53.332;6.514;2023-11-19T11:10:10;27.38;;;4.32;;
82950;SDS011;72737;53.332;6.514;2023-11-19T11:12:38;26.52;;;4.43;;
82950;SDS011;72737;53.332;6.514;2023-11-19T11:15:06;29.75;;;5.05;;
82950;SDS011;72737;53.332;6.514;2023-11-19T11:17:33;26.85;;;4.53;;
82950;SDS011;72737;53.332;6.514;2023-11-19T11:19:59;28.90;;;5.03;;
82950;SDS011;72737;53.332;6.514;2023-11-19T11:22:24;31.63;;;5.20;;
82950;SDS011;72737;53.332;6.514;2023-11-19T11:27:40;25.92;;;4.78;;
82950;SDS011;72737;53.332;6.514;2023-11-19T11:35:27;27.65;;;4.93;;
82950;SDS011;72737;53.332;6.514;2023-11-19T11:38:06;26.10;;;4.50;;
82950;SDS011;72737;53.332;6.514;2023-11-19T11:40:33;27.10;;;4.68;;
82950;SDS011;72737;53.332;6.514;2023-11-19T11:42:59;24.45;;;4.40;;
82950;SDS011;72737;53.332;6.514;2023-11-19T11:48:19;22.80;;;4.72;;
82950;SDS011;72737;53.332;6.514;2023-11-19T11:50:49;24.70;;;4.38;;
82950;SDS011;72737;53.332;6.514;2023-11-19T11:53:17;24.40;;;4.32;;
82950;SDS011;72737;53.332;6.514;2023-11-19T11:58:18;26.23;;;3.80;;
82950;SDS011;72737;53.332;6.514;2023-11-19T12:00:44;23.95;;;4.38;;
82950;SDS011;72737;53.332;6.514;2023-11-19T12:03:12;23.77;;;4.05;;
82950;SDS011;72737;53.332;6.514;2023-11-19T12:05:38;30.08;;;4.45;;
82950;SDS011;72737;53.332;6.514;2023-11-19T12:08:07;26.50;;;4.65;;
82950;SDS011;72737;53.332;6.514;2023-11-19T12:10:37;20.02;;;3.80;;
82950;SDS011;72737;53.332;6.514;2023-11-19T12:13:09;23.33;;;3.55;;
82950;SDS011;72737;53.332;6.514;2023-11-19T12:18:21;20.50;;;4.38;;
82950;SDS011;72737;53.332;6.514;2023-11-19T12:20:57;19.77;;;3.65;;
82950;SDS011;72737;53.332;6.514;2023-11-19T12:23:30;17.60;;;3.40;;
82950;SDS011;72737;53.332;6.514;2023-11-19T12:25:56;20.52;;;4.22;;
82950;SDS011;72737;53.332;6.514;2023-11-19T12:30:51;15.95;;;4.00;;
82950;SDS011;72737;53.332;6.514;2023-11-19T12:33:18;19.65;;;3.85;;
82950;SDS011;72737;53.332;6.514;2023-11-19T12:35:46;16.35;;;3.88;;
82950;SDS011;72737;53.332;6.514;2023-11-19T12:38:21;18.63;;;4.43;;
82950;SDS011;72737;53.332;6.514;2023-11-19T12:41:04;25.27;;;4.05;;
82950;SDS011;72737;53.332;6.514;2023-11-19T12:43:30;14.65;;;3.10;;
82950;SDS011;72737;53.332;6.514;2023-11-19T12:45:56;16.15;;;2.90;;
82950;SDS011;72737;53.332;6.514;2023-11-19T12:48:21;21.42;;;3.38;;
82950;SDS011;72737;53.332;6.514;2023-11-19T12:50:54;15.95;;;3.35;;
82950;SDS011;72737;53.332;6.514;2023-11-19T12:53:22;18.00;;;3.15;;
82950;SDS011;72737;53.332;6.514;2023-11-19T12:55:48;15.70;;;2.95;;
82950;SDS011;72737;53.332;6.514;2023-11-19T12:58:33;14.27;;;3.13;;
82950;SDS011;72737;53.332;6.514;2023-11-19T13:01:01;20.90;;;3.55;;
82950;SDS011;72737;53.332;6.514;2023-11-19T13:03:31;17.65;;;3.28;;
82950;SDS011;72737;53.332;6.514;2023-11-19T13:06:16;13.23;;;3.05;;
82950;SDS011;72737;53.332;6.514;2023-11-19T13:08:46;14.57;;;3.00;;
82950;SDS011;72737;53.332;6.514;2023-11-19T13:11:30;14.35;;;3.17;;
82950;SDS011;72737;53.332;6.514;2023-11-19T13:13:57;15.02;;;3.40;;
82950;SDS011;72737;53.332;6.514;2023-11-19T13:16:25;15.68;;;2.78;;
82950;SDS011;72737;53.332;6.514;2023-11-19T13:18:51;13.18;;;3.05;;
82950;SDS011;72737;53.332;6.514;2023-11-19T13:21:17;13.55;;;2.95;;
82950;SDS011;72737;53.332;6.514;2023-11-19T13:23:43;13.65;;;3.45;;
82950;SDS011;72737;53.332;6.514;2023-11-19T13:26:09;15.73;;;3.22;;
82950;SDS011;72737;53.332;6.514;2023-11-19T13:31:01;15.57;;;3.13;;
82950;SDS011;72737;53.332;6.514;2023-11-19T13:33:27;14.05;;;3.22;;
82950;SDS011;72737;53.332;6.514;2023-11-19T13:35:53;14.35;;;3.13;;
82950;SDS011;72737;53.332;6.514;2023-11-19T13:38:19;13.43;;;3.15;;
82950;SDS011;72737;53.332;6.514;2023-11-19T13:40:44;19.88;;;3.10;;
82950;SDS011;72737;53.332;6.514;2023-11-19T13:43:10;14.23;;;2.92;;
82950;SDS011;72737;53.332;6.514;2023-11-19T13:45:36;13.65;;;2.92;;
82950;SDS011;72737;53.332;6.514;2023-11-19T13:48:02;13.55;;;3.08;;
82950;SDS011;72737;53.332;6.514;2023-11-19T13:50:28;14.02;;;2.85;;
82950;SDS011;72737;53.332;6.514;2023-11-19T13:52:54;15.95;;;3.28;;
82950;SDS011;72737;53.332;6.514;2023-11-19T13:55:19;13.45;;;3.20;;
82950;SDS011;72737;53.332;6.514;2023-11-19T13:57:45;19.70;;;3.70;;
82950;SDS011;72737;53.332;6.514;2023-11-19T14:00:11;16.55;;;3.20;;
82950;SDS011;72737;53.332;6.514;2023-11-19T14:02:41;14.52;;;3.45;;
82950;SDS011;72737;53.332;6.514;2023-11-19T14:05:07;17.90;;;2.97;;
82950;SDS011;72737;53.332;6.514;2023-11-19T14:07:33;17.42;;;3.38;;
82950;SDS011;72737;53.332;6.514;2023-11-19T14:09:59;13.20;;;3.25;;
82950;SDS011;72737;53.332;6.514;2023-11-19T14:12:24;16.02;;;2.80;;
82950;SDS011;72737;53.332;6.514;2023-11-19T14:14:50;15.48;;;2.78;;
82950;SDS011;72737;53.332;6.514;2023-11-19T14:17:15;15.70;;;3.00;;
82950;SDS011;72737;53.332;6.514;2023-11-19T14:19:41;16.05;;;2.83;;
82950;SDS011;72737;53.332;6.514;2023-11-19T14:22:07;14.48;;;3.17;;
82950;SDS011;72737;53.332;6.514;2023-11-19T14:24:33;14.38;;;2.95;;
82950;SDS011;72737;53.332;6.514;2023-11-19T14:26:59;17.42;;;3.47;;
82950;SDS011;72737;53.332;6.514;2023-11-19T14:29:26;13.13;;;2.78;;
82950;SDS011;72737;53.332;6.514;2023-11-19T14:31:52;15.30;;;3.53;;
82950;SDS011;72737;53.332;6.514;2023-11-19T14:34:20;15.60;;;3.72;;
82950;SDS011;72737;53.332;6.514;2023-11-19T14:36:46;18.27;;;3.33;;
82950;SDS011;72737;53.332;6.514;2023-11-19T14:39:12;15.02;;;3.42;;
82950;SDS011;72737;53.332;6.514;2023-11-19T14:41:37;18.13;;;3.25;;
82950;SDS011;72737;53.332;6.514;2023-11-19T14:44:04;12.75;;;3.08;;
82950;SDS011;72737;53.332;6.514;2023-11-19T14:46:31;13.55;;;2.85;;
82950;SDS011;72737;53.332;6.514;2023-11-19T14:48:56;15.07;;;3.30;;
82950;SDS011;72737;53.332;6.514;2023-11-19T14:51:22;11.38;;;2.85;;
82950;SDS011;72737;53.332;6.514;2023-11-19T14:53:47;15.27;;;3.10;;
82950;SDS011;72737;53.332;6.514;2023-11-19T14:56:13;12.45;;;3.13;;
82950;SDS011;72737;53.332;6.514;2023-11-19T14:58:38;18.88;;;3.00;;
82950;SDS011;72737;53.332;6.514;2023-11-19T15:01:04;14.82;;;2.85;;
82950;SDS011;72737;53.332;6.514;2023-11-19T15:03:30;15.30;;;2.80;;
82950;SDS011;72737;53.332;6.514;2023-11-19T15:05:56;12.20;;;2.80;;